createdAt,value
2019-04-25T00:02:21.607Z,1.30
2019-04-25T00:07:24.279Z,2.00
2019-04-25T00:12:26.938Z,2.07
2019-04-25T00:17:31.466Z,1.17
2019-04-25T00:22:37.338Z,2.43
2019-04-25T00:27:41.491Z,1.37
2019-04-25T00:32:43.973Z,1.47
2019-04-25T00:37:46.153Z,2.53
2019-04-25T00:42:52.606Z,2.93
2019-04-25T00:47:54.169Z,1.70
2019-04-25T00:52:56.866Z,3.77
2019-04-25T00:58:04.288Z,1.17
2019-04-25T01:03:09.155Z,2.60
2019-04-25T01:08:12.129Z,1.77
2019-04-25T01:13:14.879Z,0.97
2019-04-25T01:18:17.522Z,1.97
2019-04-25T01:23:23.728Z,1.60
2019-04-25T01:28:26.449Z,2.37
2019-04-25T01:33:29.059Z,4.33
2019-04-25T01:38:43.283Z,0.77
2019-04-25T01:43:57.277Z,3.33
2019-04-25T01:48:56.538Z,2.50
2019-04-25T01:53:58.927Z,1.80
2019-04-25T01:59:01.664Z,3.43
2019-04-25T02:04:04.444Z,3.10
2019-04-25T02:09:08.770Z,1.10
2019-04-25T02:14:11.560Z,1.57
2019-04-25T02:19:14.564Z,1.50
2019-04-25T02:24:16.980Z,1.83
2019-04-25T02:29:19.531Z,2.40
2019-04-25T02:34:24.850Z,3.40
2019-04-25T02:39:24.968Z,3.47
2019-04-25T02:44:27.630Z,2.60
2019-04-25T02:49:39.437Z,1.80
2019-04-25T02:54:39.268Z,2.43
2019-04-25T02:59:41.863Z,2.83
2019-04-25T03:04:44.707Z,2.10
2019-04-25T03:09:47.063Z,2.33
2019-04-25T03:14:49.794Z,5.70
2019-04-25T03:20:00.031Z,2.07
2019-04-25T03:25:02.232Z,2.03
2019-04-25T03:30:10.768Z,3.40
2019-04-25T03:35:13.609Z,3.20
2019-04-25T03:40:15.494Z,2.17
2019-04-25T03:45:18.170Z,3.97
2019-04-25T03:50:20.870Z,3.47
2019-04-25T03:55:24.060Z,4.80
2019-04-25T04:00:26.143Z,2.63
2019-04-25T04:05:28.990Z,6.37
2019-04-25T04:10:33.256Z,2.80
2019-04-25T04:15:34.855Z,3.23
2019-04-25T04:20:54.083Z,3.90
2019-04-25T04:25:56.786Z,3.93
2019-04-25T04:30:59.349Z,4.40
2019-04-25T04:36:01.924Z,5.27
2019-04-25T04:41:04.561Z,5.77
2019-04-25T04:46:07.910Z,4.73
2019-04-25T04:51:10.556Z,5.73
2019-04-25T04:56:14.156Z,6.67
2019-04-25T05:01:15.658Z,4.80
2019-04-25T05:06:25.074Z,6.63
2019-04-25T05:11:26.391Z,8.80
2019-04-25T05:16:29.016Z,4.97
2019-04-25T05:21:31.623Z,5.43
2019-04-25T05:26:34.387Z,5.13
2019-04-25T05:31:43.939Z,7.53
2019-04-25T05:36:46.330Z,5.50
2019-04-25T05:41:54.037Z,3.60
2019-04-25T05:46:56.234Z,4.23
2019-04-25T05:51:58.814Z,4.17
2019-04-25T05:57:01.490Z,5.87
2019-04-25T06:02:04.436Z,5.13
2019-04-25T06:07:07.085Z,4.53
2019-04-25T06:12:14.207Z,4.33
2019-04-25T06:17:21.420Z,4.20
2019-04-25T06:22:27.821Z,3.17
2019-04-25T06:27:35.086Z,4.77
2019-04-25T06:32:36.252Z,4.40
2019-04-25T06:37:38.851Z,4.57
2019-04-25T06:42:41.472Z,3.47
2019-04-25T06:47:51.549Z,5.40
2019-04-25T06:52:54.136Z,4.57
2019-04-25T06:58:08.874Z,6.00
2019-04-25T07:02:59.436Z,2.07
2019-04-25T07:08:03.335Z,4.50
2019-04-25T07:13:04.803Z,5.17
2019-04-25T07:18:07.491Z,5.33
2019-04-25T07:23:10.134Z,3.77
2019-04-25T07:29:16.311Z,3.63
2019-04-25T07:34:21.200Z,4.83
2019-04-25T07:39:23.811Z,3.53
2019-04-25T07:44:38.668Z,2.60
2019-04-25T07:49:29.183Z,3.00
2019-04-25T07:54:31.777Z,3.10
2019-04-25T07:59:35.341Z,4.63
2019-04-25T08:04:37.138Z,5.50
2019-04-25T08:09:39.799Z,3.13
2019-04-25T08:14:46.257Z,4.37
2019-04-25T08:19:48.960Z,2.63
2019-04-25T08:24:51.719Z,2.90
2019-04-25T08:29:54.346Z,4.87
2019-04-25T08:34:56.994Z,3.80
2019-04-25T08:39:59.642Z,4.40
2019-04-25T08:45:03.675Z,2.17
2019-04-25T08:50:10.029Z,3.67
2019-04-25T08:55:17.236Z,6.97
2019-04-25T09:00:27.566Z,2.90
2019-04-25T09:05:36.029Z,6.30
2019-04-25T09:10:38.236Z,4.77
2019-04-25T09:15:39.535Z,5.33
2019-04-25T09:20:43.867Z,2.43
2019-04-25T09:25:46.094Z,5.73
2019-04-25T09:30:47.626Z,3.67
2019-04-25T09:35:50.318Z,2.80
2019-04-25T09:40:54.141Z,4.13
2019-04-25T09:46:00.802Z,5.70
2019-04-25T09:51:10.889Z,2.40
2019-04-25T09:56:18.082Z,4.80
2019-04-25T10:01:20.812Z,3.60
2019-04-25T10:06:23.500Z,6.77
2019-04-25T10:11:26.187Z,2.63
2019-04-25T10:16:28.790Z,2.40
2019-04-25T10:21:31.382Z,3.73
2019-04-25T10:26:34.957Z,3.67
2019-04-25T10:31:36.732Z,3.33
2019-04-25T10:36:41.251Z,5.07
2019-04-25T10:41:44.747Z,3.77
2019-04-25T10:46:46.130Z,5.60
2019-04-25T10:51:47.982Z,2.57
2019-04-25T10:56:50.069Z,2.33
2019-04-25T11:01:53.902Z,5.10
2019-04-25T11:06:55.488Z,3.30
2019-04-25T11:11:58.117Z,4.87
2019-04-25T11:17:01.655Z,3.80
2019-04-25T11:22:04.045Z,6.03
2019-04-25T11:27:06.344Z,3.83
2019-04-25T11:32:09.042Z,2.23
2019-04-25T11:37:11.648Z,4.77
2019-04-25T11:42:15.388Z,5.07
2019-04-25T11:47:18.059Z,3.77
2019-04-25T11:52:27.328Z,5.90
2019-04-25T11:57:23.417Z,3.87
2019-04-25T12:02:26.103Z,6.20
2019-04-25T12:07:28.800Z,2.37
2019-04-25T12:12:31.444Z,3.67
2019-04-25T12:17:35.283Z,6.83
2019-04-25T12:22:36.729Z,2.63
2019-04-25T12:27:39.289Z,2.97
2019-04-25T12:32:41.907Z,3.63
2019-04-25T12:37:44.457Z,4.43
2019-04-25T12:42:47.855Z,3.47
2019-04-25T12:47:50.751Z,3.37
2019-04-25T12:52:54.514Z,4.27
2019-04-25T12:57:56.495Z,5.67
2019-04-25T13:02:58.696Z,7.43
2019-04-25T13:08:01.093Z,4.77
2019-04-25T13:13:03.928Z,3.57
2019-04-25T13:18:05.782Z,3.57
2019-04-25T13:23:08.611Z,3.07
2019-04-25T13:28:23.220Z,2.87
2019-04-25T13:33:29.066Z,3.83
2019-04-25T13:38:31.791Z,1.80
2019-04-25T13:43:34.467Z,5.33
2019-04-25T13:48:37.072Z,4.27
2019-04-25T13:53:39.679Z,3.67
2019-04-25T13:58:44.176Z,6.20
2019-04-25T14:03:45.229Z,4.83
2019-04-25T14:08:47.814Z,4.07
2019-04-25T14:13:50.428Z,6.37
2019-04-25T14:21:05.057Z,3.97
2019-04-25T14:26:07.865Z,3.50
2019-04-25T14:31:10.730Z,3.57
2019-04-25T14:36:13.486Z,2.33
2019-04-25T14:41:16.240Z,2.57
2019-04-25T14:46:18.853Z,1.73
2019-04-25T14:51:21.816Z,3.50
2019-04-25T14:56:32.447Z,4.03
2019-04-25T15:01:44.455Z,2.77
2019-04-25T15:06:37.322Z,1.17
2019-04-25T15:11:40.507Z,1.83
2019-04-25T15:16:43.370Z,2.13
2019-04-25T15:21:45.987Z,4.67
2019-04-25T15:26:48.879Z,3.00
2019-04-25T15:31:56.023Z,2.87
2019-04-25T15:36:58.138Z,1.33
2019-04-25T15:42:06.439Z,4.13
2019-04-25T15:47:10.207Z,3.70
2019-04-25T15:52:12.931Z,2.30
2019-04-25T15:57:15.566Z,4.53
2019-04-25T16:02:18.395Z,1.80
2019-04-25T16:07:21.229Z,1.67
2019-04-25T16:12:23.866Z,1.50
2019-04-25T16:17:27.183Z,5.07
2019-04-25T16:22:30.224Z,3.00
2019-04-25T16:27:32.595Z,3.30
2019-04-25T16:32:35.517Z,2.43
2019-04-25T16:37:38.297Z,3.10
2019-04-25T16:42:41.763Z,2.53
2019-04-25T16:47:43.975Z,2.23
2019-04-25T16:52:46.801Z,3.63
2019-04-25T16:57:49.652Z,2.40
2019-04-25T17:02:52.277Z,2.50
2019-04-25T17:07:54.924Z,3.87
2019-04-25T17:12:57.627Z,2.43
2019-04-25T17:18:18.387Z,3.60
2019-04-25T17:23:21.085Z,3.37
2019-04-25T17:28:23.835Z,2.30
2019-04-25T17:33:33.897Z,2.27
2019-04-25T17:38:40.849Z,3.70
2019-04-25T17:43:43.896Z,3.47
2019-04-25T17:48:46.195Z,6.70
2019-04-25T17:53:48.875Z,4.40
2019-04-25T17:58:51.494Z,2.30
2019-04-25T18:03:54.293Z,4.30
2019-04-25T18:08:56.935Z,6.10
2019-04-25T18:13:59.590Z,3.33
2019-04-25T18:19:07.125Z,5.53
2019-04-25T18:24:48.825Z,2.93
2019-04-25T18:29:51.412Z,4.17
2019-04-25T18:35:06.653Z,9.57
2019-04-25T18:40:14.647Z,10.10
2019-04-25T18:45:20.878Z,9.13
2019-04-25T18:50:24.336Z,7.47
2019-04-25T18:55:31.756Z,5.37
2019-04-25T19:00:48.238Z,4.13
2019-04-25T19:05:54.823Z,4.23
2019-04-25T19:10:57.541Z,5.90
2019-04-25T19:16:00.253Z,6.77
2019-04-25T19:21:02.966Z,5.77
2019-04-25T19:26:05.575Z,4.83
2019-04-25T19:31:08.357Z,5.57
2019-04-25T19:36:11.077Z,5.43
2019-04-25T19:41:18.528Z,4.00
2019-04-25T19:46:25.743Z,5.00
2019-04-25T19:51:28.394Z,5.73
2019-04-25T19:56:31.068Z,5.53
2019-04-25T20:01:33.723Z,5.27
2019-04-25T20:06:42.222Z,4.53
2019-04-25T20:11:47.320Z,5.17
2019-04-25T20:16:49.977Z,8.43
2019-04-25T20:21:52.559Z,7.53
2019-04-25T20:26:55.213Z,6.73
2019-04-25T20:31:57.874Z,8.07
2019-04-25T20:37:00.616Z,8.87
2019-04-25T20:42:03.520Z,6.07
2019-04-25T20:47:06.154Z,6.03
2019-04-25T20:52:08.948Z,7.80
2019-04-25T20:57:11.629Z,6.33
2019-04-25T21:02:14.230Z,8.17
2019-04-25T21:07:16.850Z,6.93
2019-04-25T21:12:19.446Z,5.10
2019-04-25T21:17:28.752Z,6.80
2019-04-25T21:22:31.409Z,7.13
2019-04-25T21:27:34.020Z,6.90
2019-04-25T21:32:50.584Z,7.23
2019-04-25T21:37:53.542Z,5.40
2019-04-25T21:43:02.460Z,5.27
2019-04-25T21:48:05.342Z,4.90
2019-04-25T21:53:07.990Z,7.10
2019-04-25T21:58:10.645Z,7.80
2019-04-25T22:03:13.346Z,7.43
2019-04-25T22:08:16.018Z,8.77
2019-04-25T22:13:18.650Z,7.43
2019-04-25T22:18:21.324Z,8.50
2019-04-25T22:23:23.966Z,6.53
2019-04-25T22:28:26.725Z,6.23
2019-04-25T22:33:35.086Z,9.67
2019-04-25T22:38:37.724Z,5.27
2019-04-25T22:43:42.694Z,6.23
2019-04-25T22:48:48.228Z,7.63
2019-04-25T22:53:50.831Z,6.70
2019-04-25T22:58:53.464Z,6.27
2019-04-25T23:03:56.654Z,6.83
2019-04-25T23:08:59.834Z,7.10
2019-04-25T23:14:02.522Z,7.13
2019-04-25T23:19:05.321Z,7.77
2019-04-25T23:24:07.889Z,7.43
2019-04-25T23:29:10.991Z,5.10
2019-04-25T23:34:13.566Z,6.67
2019-04-25T23:39:16.180Z,7.43
2019-04-25T23:44:18.807Z,6.40
2019-04-25T23:49:22.804Z,7.93
2019-04-25T23:54:25.358Z,5.50
2019-04-25T23:59:27.967Z,4.17
